Porto Amazonas, Brazil
Current Conditions -  °F | °C
As of 2:00 PM on Friday 19 Dec 2014 (Local Time) from SBBI Reporting Station
Broken Clouds Broken Clouds  
Wind Chill: 79°   Ceiling: 3000
Heat Index: 81°   Visibility: 6mi
Dew Point: 64°   Wind: 7mph
Humidity: 61%   Direction: 20°NNE
Pressure: 29.91"   Gusts: NA
Location:  25.55°S, 49.9°W
Report Text: SBBI 191600Z 02006KT 9999 BKN030 FEW035TCU 26/18 Q1013
Loading
Personal Weather Stations






























Interactive Weather Map New forecast layout! Learn more

10-Day Weather Forecast

Advertisements
Track Severe Weather on mobile